Time;durP1;ratioP1;P1;durP2;ratioP2;P2;SDS_P1;SDS_P2;PMS_P1;PMS_P2;Temp;Humidity;BMP_temperature;BMP_pressure;BME280_temperature;BME280_humidity;BME280_pressure;Samples;Min_cycle;Max_cycle;Signal;HPM_P1;HPM_P2
2021/07/27 00:00:41;;;;;;;5.93;1.50;;;;;;;29.34;100.00;96094.22;4984130;28;20080;-31
2021/07/27 00:04:05;;;;;;;3.63;1.30;;;;;;;-148.56;100.00;61375.16;4983162;28;20037;-31
2021/07/27 00:07:29;;;;;;;7.80;1.50;;;;;;;-148.56;100.00;61375.16;4989995;28;20157;-31
2021/07/27 00:10:53;;;;;;;3.00;1.25;;;;;;;-148.56;100.00;61375.16;4984681;28;20558;-31
2021/07/27 00:14:17;;;;;;;4.15;1.20;;;;;;;-148.56;100.00;61375.16;4982531;28;20022;-29
2021/07/27 00:17:41;;;;;;;4.95;1.40;;;;;;;-148.56;100.00;61375.16;4983512;28;20546;-29
2021/07/27 00:21:07;;;;;;;7.95;1.52;;;;;;;-148.56;100.00;61375.16;4991336;28;20034;-30
2021/07/27 00:24:32;;;;;;;2.50;1.10;;;;;;;-148.56;100.00;61375.16;4985394;28;20774;-32
2021/07/27 00:27:56;;;;;;;4.45;1.58;;;;;;;-148.56;100.00;61375.16;4991990;28;20034;-32
2021/07/27 00:31:20;;;;;;;3.60;1.35;;;;;;;-148.56;100.00;61375.16;4991468;28;20026;-31
2021/07/27 00:34:47;;;;;;;2.30;1.40;;;;;;;-148.56;100.00;61375.16;4996062;28;20165;-29
2021/07/27 00:38:29;;;;;;;5.95;1.45;;;;;;;-148.56;100.00;61375.16;4989955;28;20087;-30
2021/07/27 00:41:52;;;;;;;3.73;1.50;;;;;;;-148.56;100.00;61375.16;4982151;28;20069;-30
2021/07/27 00:45:16;;;;;;;4.25;1.13;;;;;;;-148.56;100.00;61375.16;5003056;28;20886;-30
2021/07/27 00:48:40;;;;;;;3.20;1.45;;;;;;;-148.56;100.00;61375.16;4987107;28;20088;-31
2021/07/27 00:52:03;;;;;;;1.17;1.08;;;;;;;-148.56;100.00;61375.16;4986095;28;20042;-29
2021/07/27 00:55:25;;;;;;;5.43;1.40;;;;;;;-148.56;100.00;61375.16;4994971;28;20044;-30
2021/07/27 00:58:32;;;;;;;4.65;1.40;;;;;;;-148.56;100.00;61375.16;4996870;28;20833;-29
2021/07/27 01:01:56;;;;;;;2.88;1.10;;;;;;;-148.56;100.00;61375.16;4986138;28;20034;-31
2021/07/27 01:05:20;;;;;;;5.03;1.27;;;;;;;-148.56;100.00;61375.16;4992604;28;20022;-31
2021/07/27 01:08:45;;;;;;;1.60;1.20;;;;;;;-148.56;100.00;61375.16;4987520;28;20424;-32
2021/07/27 01:12:19;;;;;;;1.85;1.00;;;;;;;-148.56;100.00;61375.16;4999946;28;20112;-29
2021/07/27 01:15:43;;;;;;;3.95;1.50;;;;;;;-148.56;100.00;61375.16;4998364;28;20519;-31
2021/07/27 01:37:36;;;;;;;2.78;1.23;;;;;;;-148.56;100.00;61375.16;4989761;28;20041;-31
2021/07/27 01:44:44;;;;;;;1.42;0.95;;;;;;;-148.56;100.00;61375.16;4981687;28;20026;-30
2021/07/27 01:48:08;;;;;;;1.58;1.20;;;;;;;-148.56;100.00;61375.16;4987743;28;20563;-32
2021/07/27 01:51:41;;;;;;;2.45;1.15;;;;;;;-148.56;100.00;61375.16;4986805;28;20037;-29
2021/07/27 01:55:08;;;;;;;6.38;1.60;;;;;;;-148.56;100.00;61375.16;4983833;28;20026;-32
2021/07/27 01:58:32;;;;;;;2.72;1.42;;;;;;;-148.56;100.00;61375.16;4986690;28;20052;-31
2021/07/27 02:01:56;;;;;;;1.63;1.30;;;;;;;-148.56;100.00;61375.16;4984378;28;20148;-30
2021/07/27 02:05:20;;;;;;;3.40;1.10;;;;;;;-148.56;100.00;61375.16;4989473;28;20033;-29
2021/07/27 02:07:55;;;;;;;2.45;0.98;;;;;;;-148.56;100.00;61375.16;4985391;28;20030;-31
2021/07/27 02:11:25;;;;;;;4.53;1.30;;;;;;;-148.56;100.00;61375.16;4977837;28;20026;-30
2021/07/27 02:15:05;;;;;;;;;;;;;;;;;;;;;
2021/07/27 02:17:55;;;;;;;3.58;1.30;;;;;;;-148.56;100.00;61375.16;4983666;28;20046;-30
2021/07/27 02:21:19;;;;;;;2.38;1.25;;;;;;;-148.56;100.00;61375.16;4981276;28;20025;-29
2021/07/27 02:24:40;;;;;;;1.75;1.00;;;;;;;-148.56;100.00;61375.16;4984240;28;20459;-30
2021/07/27 02:28:04;;;;;;;6.80;1.00;;;;;;;-148.56;100.00;61375.16;4987690;28;20040;-30
2021/07/27 02:31:17;;;;;;;2.35;1.10;;;;;;;-148.56;100.00;61375.16;4986426;28;20116;-29
2021/07/27 02:33:46;;;;;;;4.47;1.15;;;;;;;-148.56;100.00;61375.16;4986647;28;20052;-29
2021/07/27 02:37:10;;;;;;;5.75;1.60;;;;;;;-148.56;100.00;61375.16;4987736;28;20479;-31
2021/07/27 02:40:34;;;;;;;7.45;1.70;;;;;;;-148.56;100.00;61375.16;4989505;28;20040;-31
2021/07/27 02:43:58;;;;;;;2.95;1.15;;;;;;;-148.56;100.00;61375.16;4990822;28;20145;-30
2021/07/27 02:47:24;;;;;;;3.20;1.10;;;;;;;-148.56;100.00;61375.16;4984458;28;20070;-31
2021/07/27 02:50:58;;;;;;;4.53;1.50;;;;;;;-148.56;100.00;61375.16;4989638;28;20531;-30
2021/07/27 02:54:21;;;;;;;3.88;1.80;;;;;;;-148.56;100.00;61375.16;4984386;28;20026;-31
2021/07/27 02:57:48;;;;;;;2.05;1.20;;;;;;;-148.56;100.00;61375.16;4994533;28;20033;-31
2021/07/27 03:01:12;;;;;;;5.45;1.10;;;;;;;-148.56;100.00;61375.16;4986316;28;20037;-31
2021/07/27 03:04:36;;;;;;;3.05;1.20;;;;;;;-148.56;100.00;61375.16;4984815;28;20032;-31
2021/07/27 03:08:09;;;;;;;1.55;1.05;;;;;;;-148.56;100.00;61375.16;4993909;28;20255;-29
2021/07/27 03:11:32;;;;;;;4.22;1.50;;;;;;;-148.56;100.00;61375.16;4987983;28;20351;-29
2021/07/27 03:15:00;;;;;;;3.22;1.17;;;;;;;-148.56;100.00;61375.16;4985271;28;20482;-34
2021/07/27 03:18:24;;;;;;;4.47;1.58;;;;;;;-148.56;100.00;61375.16;4986513;28;20723;-29
2021/07/27 03:21:48;;;;;;;5.50;1.50;;;;;;;-148.56;100.00;61375.16;4991528;28;20042;-35
2021/07/27 03:25:16;;;;;;;7.25;1.42;;;;;;;-148.56;100.00;61375.16;4990844;28;20037;-29
2021/07/27 03:28:40;;;;;;;7.97;1.45;;;;;;;-148.56;100.00;61375.16;4991607;28;20033;-31
2021/07/27 03:32:04;;;;;;;3.25;1.13;;;;;;;-148.56;100.00;61375.16;4995520;28;20026;-30
2021/07/27 03:35:28;;;;;;;1.88;1.20;;;;;;;-148.56;100.00;61375.16;4990238;28;20026;-31
2021/07/27 03:38:52;;;;;;;3.05;1.30;;;;;;;-148.56;100.00;61375.16;4992641;28;20029;-31
2021/07/27 03:42:16;;;;;;;2.60;1.30;;;;;;;-148.56;100.00;61375.16;4993370;28;20496;-33
2021/07/27 03:45:39;;;;;;;2.08;1.23;;;;;;;-148.56;100.00;61375.16;4988395;28;20046;-30
2021/07/27 03:48:37;;;;;;;4.65;1.38;;;;;;;-148.56;100.00;61375.16;4988716;28;20026;-32
2021/07/27 03:52:01;;;;;;;6.03;1.17;;;;;;;-148.56;100.00;61375.16;4994272;28;20030;-29
2021/07/27 03:55:28;;;;;;;3.33;1.45;;;;;;;-148.56;100.00;61375.16;4992415;28;20801;-31
2021/07/27 03:58:51;;;;;;;4.80;1.50;;;;;;;-148.56;100.00;61375.16;4986192;28;20044;-31
2021/07/27 04:02:15;;;;;;;3.70;1.20;;;;;;;-148.56;100.00;61375.16;4988620;28;20044;-30
2021/07/27 04:05:43;;;;;;;3.83;1.35;;;;;;;-148.56;100.00;61375.16;4995325;28;20068;-31
2021/07/27 04:09:07;;;;;;;3.13;1.42;;;;;;;-148.56;100.00;61375.16;4991333;28;20110;-31
2021/07/27 04:12:33;;;;;;;4.75;1.50;;;;;;;-148.56;100.00;61375.16;4986185;28;20594;-30
2021/07/27 04:15:58;;;;;;;3.65;1.10;;;;;;;-148.56;100.00;61375.16;4993319;28;20034;-31
2021/07/27 04:19:21;;;;;;;5.57;1.40;;;;;;;-148.56;100.00;61375.16;4990563;28;20053;-29
2021/07/27 04:22:46;;;;;;;3.70;1.40;;;;;;;-148.56;100.00;61375.16;4992249;28;20040;-30
2021/07/27 04:26:10;;;;;;;4.57;1.50;;;;;;;-148.56;100.00;61375.16;4986839;28;20049;-30
2021/07/27 04:29:34;;;;;;;2.67;1.63;;;;;;;-148.56;100.00;61375.16;4991487;28;20294;-31
2021/07/27 04:32:58;;;;;;;4.07;1.80;;;;;;;-148.56;100.00;61375.16;4989184;28;20531;-32
2021/07/27 04:36:22;;;;;;;1.88;1.30;;;;;;;-148.56;100.00;61375.16;4989383;28;20034;-31
2021/07/27 04:39:45;;;;;;;1.85;1.48;;;;;;;-148.56;100.00;61375.16;4989224;28;20114;-31
2021/07/27 04:43:13;;;;;;;5.53;1.40;;;;;;;-148.56;100.00;61375.16;4984755;28;21587;-31
2021/07/27 04:46:37;;;;;;;5.32;1.60;;;;;;;-148.56;100.00;61375.16;4986511;28;20034;-31
2021/07/27 04:50:01;;;;;;;7.13;1.60;;;;;;;-148.56;100.00;61375.16;4987087;28;20063;-31
2021/07/27 04:53:29;;;;;;;8.48;1.70;;;;;;;-148.56;100.00;61375.16;4986163;28;20041;-31
2021/07/27 04:56:56;;;;;;;3.65;1.70;;;;;;;-148.56;100.00;61375.16;4997649;28;20113;-31
2021/07/27 05:00:21;;;;;;;5.88;1.52;;;;;;;-148.56;100.00;61375.16;4996813;28;20127;-31
2021/07/27 05:03:04;;;;;;;8.00;1.58;;;;;;;-148.56;100.00;61375.16;4991436;28;20507;-31
2021/07/27 05:06:22;;;;;;;4.65;1.50;;;;;;;-148.56;100.00;61375.16;4986991;28;20393;-30
2021/07/27 05:08:47;;;;;;;6.45;1.70;;;;;;;-148.56;100.00;61375.16;4987941;28;20112;-31
2021/07/27 05:11:13;;;;;;;4.35;1.45;;;;;;;29.34;40.48;96094.22;4989877;28;20053;-30
2021/07/27 05:14:36;;;;;;;4.43;1.58;;;;;;;-148.56;100.00;61375.16;4983596;28;20570;-30
2021/07/27 05:18:04;;;;;;;6.82;1.65;;;;;;;-148.56;100.00;61375.16;4987961;28;20506;-31
2021/07/27 05:21:28;;;;;;;6.40;1.80;;;;;;;-148.56;100.00;61375.16;4989042;28;20034;-30
2021/07/27 05:24:52;;;;;;;7.45;1.90;;;;;;;-148.56;100.00;61375.16;4985273;28;20145;-30
2021/07/27 05:28:19;;;;;;;6.68;2.65;;;;;;;-148.56;100.00;61375.16;5001754;28;20542;-30
2021/07/27 05:31:43;;;;;;;6.07;1.83;;;;;;;-148.56;100.00;61375.16;4986972;28;20037;-32
2021/07/27 05:35:07;;;;;;;4.97;1.73;;;;;;;-148.56;100.00;61375.16;4985221;28;20030;-32
2021/07/27 05:38:31;;;;;;;6.35;1.95;;;;;;;-148.56;100.00;61375.16;4988314;28;20033;-31
2021/07/27 05:41:56;;;;;;;6.43;1.83;;;;;;;-148.56;100.00;61375.16;4979057;28;20038;-33
2021/07/27 05:45:20;;;;;;;4.32;1.70;;;;;;;-148.56;100.00;61375.16;4990779;28;20037;-33
2021/07/27 05:48:46;;;;;;;4.55;1.80;;;;;;;-148.56;100.00;61375.16;4989575;28;20033;-30
2021/07/27 05:52:13;;;;;;;3.33;1.65;;;;;;;-148.56;100.00;61375.16;4988559;28;20033;-30
2021/07/27 05:55:37;;;;;;;4.57;1.80;;;;;;;-148.56;100.00;61375.16;4990419;28;20040;-32
2021/07/27 05:59:01;;;;;;;4.20;1.67;;;;;;;-148.56;100.00;61375.16;4980727;28;20845;-30
2021/07/27 06:02:25;;;;;;;5.47;1.60;;;;;;;-148.56;100.00;61375.16;4987850;28;20126;-30
2021/07/27 06:05:52;;;;;;;5.15;1.80;;;;;;;-148.56;100.00;61375.16;4984264;28;20640;-28
2021/07/27 06:09:16;;;;;;;5.70;1.70;;;;;;;-148.56;100.00;61375.16;4983311;28;20032;-29
2021/07/27 06:12:40;;;;;;;3.05;1.60;;;;;;;-148.56;100.00;61375.16;4988913;28;20041;-30
2021/07/27 06:15:21;;;;;;;1.70;1.20;;;;;;;-148.56;100.00;61375.16;4980211;28;20030;-30
2021/07/27 06:18:45;;;;;;;5.85;1.73;;;;;;;-148.56;100.00;61375.16;4986397;28;20499;-29
2021/07/27 06:22:09;;;;;;;3.50;1.38;;;;;;;-148.56;100.00;61375.16;4988088;28;20759;-32
2021/07/27 06:25:35;;;;;;;3.40;1.40;;;;;;;-148.56;100.00;61375.16;4985095;28;20105;-30
2021/07/27 06:29:01;;;;;;;4.78;2.08;;;;;;;-148.56;100.00;61375.16;4986128;28;20441;-31
2021/07/27 06:32:25;;;;;;;6.80;1.70;;;;;;;-148.56;100.00;61375.16;4983682;28;20574;-32
2021/07/27 06:35:55;;;;;;;15.88;3.63;;;;;;;-148.56;100.00;61375.16;4980810;28;20306;-31
2021/07/27 06:39:19;;;;;;;13.82;4.28;;;;;;;-148.56;100.00;61375.16;4987859;28;20357;-31
2021/07/27 06:42:43;;;;;;;14.90;4.22;;;;;;;-148.56;100.00;61375.16;4978899;28;20194;-29
2021/07/27 06:46:07;;;;;;;19.23;4.47;;;;;;;-148.56;100.00;61375.16;4976453;28;20419;-32
2021/07/27 06:49:31;;;;;;;12.40;4.32;;;;;;;-148.56;100.00;61375.16;4996195;28;20070;-29
2021/07/27 06:52:55;;;;;;;13.55;4.65;;;;;;;-148.56;100.00;61375.16;4979343;28;22388;-30
2021/07/27 06:56:19;;;;;;;12.88;4.30;;;;;;;-148.56;100.00;61375.16;4978141;28;20099;-31
2021/07/27 06:59:43;;;;;;;12.13;4.45;;;;;;;-148.56;100.00;61375.16;4977690;28;20733;-32
2021/07/27 07:03:07;;;;;;;11.10;3.90;;;;;;;-148.56;100.00;61375.16;4980518;28;20093;-30
2021/07/27 07:06:31;;;;;;;13.00;4.15;;;;;;;-148.56;100.00;61375.16;4978497;28;20060;-30
2021/07/27 07:09:54;;;;;;;12.20;4.00;;;;;;;-148.56;100.00;61375.16;4979397;28;20030;-31
2021/07/27 07:13:18;;;;;;;9.30;4.03;;;;;;;-148.56;100.00;61375.16;4980216;28;20038;-30
2021/07/27 07:16:42;;;;;;;12.75;4.07;;;;;;;-148.56;100.00;61375.16;4977986;28;20489;-31
2021/07/27 07:20:06;;;;;;;13.73;4.10;;;;;;;-148.56;100.00;61375.16;4978975;28;20600;-30
2021/07/27 07:23:30;;;;;;;13.07;3.67;;;;;;;-148.56;100.00;61375.16;4999149;28;20084;-31
2021/07/27 07:26:54;;;;;;;13.32;4.32;;;;;;;-148.56;100.00;61375.16;4978807;28;20057;-31
2021/07/27 07:30:18;;;;;;;9.80;4.20;;;;;;;-148.56;100.00;61375.16;4980603;28;20042;-31
2021/07/27 07:33:42;;;;;;;10.20;3.92;;;;;;;-148.56;100.00;61375.16;4979199;28;20058;-30
2021/07/27 07:37:09;;;;;;;12.38;4.10;;;;;;;-148.56;100.00;61375.16;4983089;28;20032;-30
2021/07/27 07:40:33;;;;;;;16.02;4.22;;;;;;;-148.56;100.00;61375.16;4984846;28;20113;-32
2021/07/27 07:43:58;;;;;;;9.38;4.00;;;;;;;-148.56;100.00;61375.16;4974219;28;20103;-34
2021/07/27 07:47:22;;;;;;;12.13;4.07;;;;;;;-148.56;100.00;61375.16;4979135;28;20047;-32
2021/07/27 07:50:45;;;;;;;10.38;4.53;;;;;;;-148.56;100.00;61375.16;4980125;28;20034;-30
2021/07/27 07:54:09;;;;;;;7.90;4.25;;;;;;;-148.56;100.00;61375.16;4977812;28;20034;-30
2021/07/27 07:57:33;;;;;;;9.82;4.10;;;;;;;-148.56;100.00;61375.16;4973078;28;20034;-31
2021/07/27 08:00:57;;;;;;;15.23;4.35;;;;;;;-148.56;100.00;61375.16;4992347;28;20034;-31
2021/07/27 08:04:21;;;;;;;13.15;4.20;;;;;;;-148.56;100.00;61375.16;4977558;28;20049;-31
2021/07/27 08:07:45;;;;;;;14.15;4.43;;;;;;;-148.56;100.00;61375.16;4983077;28;20041;-30
2021/07/27 08:11:10;;;;;;;12.40;4.53;;;;;;;-148.56;100.00;61375.16;4983401;28;23226;-31
2021/07/27 08:14:34;;;;;;;13.00;5.15;;;;;;;-148.56;100.00;61375.16;4981862;28;20029;-31
2021/07/27 08:17:58;;;;;;;14.45;4.32;;;;;;;-148.56;100.00;61375.16;4995907;28;20667;-31
2021/07/27 08:21:24;;;;;;;11.75;4.53;;;;;;;-148.56;100.00;61375.16;4981735;28;20034;-31
2021/07/27 08:24:47;;;;;;;17.38;5.00;;;;;;;-148.56;100.00;61375.16;4983175;28;20040;-31
2021/07/27 08:28:11;;;;;;;11.55;4.50;;;;;;;-148.56;100.00;61375.16;4988613;28;20066;-30
2021/07/27 08:31:35;;;;;;;12.00;4.70;;;;;;;-148.56;100.00;61375.16;4979458;28;20061;-32
2021/07/27 08:34:59;;;;;;;7.90;4.30;;;;;;;-148.56;100.00;61375.16;4983550;28;20044;-31
2021/07/27 08:38:23;;;;;;;6.30;4.70;;;;;;;-148.56;100.00;61375.16;4977221;28;20037;-30
2021/07/27 08:41:47;;;;;;;10.55;5.03;;;;;;;-148.56;100.00;61375.16;4995204;28;20621;-31
2021/07/27 08:45:17;;;;;;;7.03;4.95;;;;;;;-148.56;100.00;61375.16;4996004;28;20672;-32
2021/07/27 08:48:07;;;;;;;11.02;4.80;;;;;;;21.67;40.48;96094.22;4981467;28;20034;-31
2021/07/27 08:51:31;;;;;;;6.88;4.38;;;;;;;-148.56;100.00;61375.16;4979018;28;20042;-32
2021/07/27 08:54:55;;;;;;;8.73;5.30;;;;;;;-148.56;100.00;61375.16;4994282;28;20041;-30
2021/07/27 08:58:19;;;;;;;8.35;4.85;;;;;;;-148.56;100.00;61375.16;4980008;28;20073;-31
2021/07/27 09:01:43;;;;;;;8.43;4.30;;;;;;;-148.56;100.00;61375.16;4980741;28;20520;-31
2021/07/27 09:05:07;;;;;;;8.45;4.50;;;;;;;-148.56;100.00;61375.16;4990775;28;20026;-30
2021/07/27 09:08:32;;;;;;;8.20;4.10;;;;;;;-148.56;100.00;61375.16;4990510;28;20108;-32
2021/07/27 09:11:58;;;;;;;8.18;4.40;;;;;;;-148.56;100.00;61375.16;5004254;28;20110;-34
2021/07/27 09:15:23;;;;;;;10.98;4.65;;;;;;;-148.56;100.00;61375.16;4987319;28;20062;-32
2021/07/27 09:18:40;;;;;;;11.77;4.90;;;;;;;-148.56;100.00;61375.16;4990691;28;20054;-33
2021/07/27 09:22:05;;;;;;;6.53;3.80;;;;;;;-148.56;100.00;61375.16;4985941;28;20033;-34
2021/07/27 09:25:29;;;;;;;8.15;4.80;;;;;;;-148.56;100.00;61375.16;4981950;28;20526;-30
2021/07/27 09:29:04;;;;;;;8.45;4.75;;;;;;;-148.56;100.00;61375.16;4982473;28;20079;-31
2021/07/27 09:32:29;;;;;;;12.60;4.43;;;;;;;-148.56;100.00;61375.16;4986487;28;20057;-30
2021/07/27 09:36:01;;;;;;;10.45;4.32;;;;;;;-148.56;100.00;61375.16;4986247;28;20443;-30
2021/07/27 09:39:25;;;;;;;9.48;4.30;;;;;;;-148.56;100.00;61375.16;4987933;28;20038;-32
2021/07/27 09:42:56;;;;;;;10.57;4.65;;;;;;;-148.56;100.00;61375.16;5005348;28;20041;-30
2021/07/27 09:46:19;;;;;;;8.20;4.50;;;;;;;-148.56;100.00;61375.16;4999744;28;20037;-29
2021/07/27 09:49:44;;;;;;;9.98;4.47;;;;;;;-148.56;100.00;61375.16;4981618;28;20037;-32
2021/07/27 09:53:07;;;;;;;10.25;4.20;;;;;;;-148.56;100.00;61375.16;4984923;28;20088;-31
2021/07/27 09:56:31;;;;;;;10.18;4.28;;;;;;;-148.56;100.00;61375.16;4987128;28;20033;-31
2021/07/27 09:59:55;;;;;;;8.80;4.35;;;;;;;-148.56;100.00;61375.16;4976896;28;20030;-31
2021/07/27 10:03:26;;;;;;;8.10;4.45;;;;;;;-148.56;100.00;61375.16;4975372;28;20037;-31
2021/07/27 10:06:50;;;;;;;8.70;4.50;;;;;;;-148.56;100.00;61375.16;4994929;28;20626;-31
2021/07/27 10:10:44;;;;;;;9.00;4.13;;;;;;;-148.56;100.00;61375.16;5001820;28;20042;-33
2021/07/27 10:14:10;;;;;;;8.18;3.90;;;;;;;-148.56;100.00;61375.16;4986844;28;20034;-32
2021/07/27 10:17:34;;;;;;;7.63;3.88;;;;;;;-148.56;100.00;61375.16;4995815;28;20042;-32
2021/07/27 10:21:16;;;;;;;4.72;3.53;;;;;;;-148.56;100.00;61375.16;4979343;28;20026;-34
2021/07/27 10:24:44;;;;;;;8.55;3.95;;;;;;;-148.56;100.00;61375.16;4976948;28;20103;-31
2021/07/27 10:28:09;;;;;;;5.50;3.88;;;;;;;-148.56;100.00;61375.16;4984178;28;20026;-32
2021/07/27 10:31:43;;;;;;;5.85;4.00;;;;;;;-148.56;100.00;61375.16;4975623;28;20120;-30
2021/07/27 10:35:28;;;;;;;6.03;3.90;;;;;;;-148.56;100.00;61375.16;4977932;28;20179;-30
2021/07/27 10:39:09;;;;;;;5.43;3.80;;;;;;;-148.56;100.00;61375.16;4980689;28;20038;-33
2021/07/27 10:42:37;;;;;;;7.28;3.47;;;;;;;-148.56;100.00;61375.16;4980194;28;20030;-31
2021/07/27 10:46:01;;;;;;;6.15;4.28;;;;;;;-148.56;100.00;61375.16;4978130;28;20129;-31
2021/07/27 10:49:34;;;;;;;7.57;4.07;;;;;;;-148.56;100.00;61375.16;4978060;28;20814;-32
2021/07/27 10:53:06;;;;;;;8.25;4.25;;;;;;;-148.56;100.00;61375.16;4981312;28;20499;-32
2021/07/27 10:56:34;;;;;;;5.70;3.85;;;;;;;-148.56;100.00;61375.16;4983703;28;20045;-29
2021/07/27 10:59:58;;;;;;;6.13;3.78;;;;;;;-148.56;100.00;61375.16;5001512;28;20038;-31
2021/07/27 11:03:25;;;;;;;7.85;4.40;;;;;;;-148.56;100.00;61375.16;4987504;28;20057;-32
2021/07/27 11:07:29;;;;;;;10.55;3.83;;;;;;;-148.56;100.00;61375.16;4985590;28;20030;-32
2021/07/27 11:11:05;;;;;;;6.78;3.92;;;;;;;-148.56;100.00;61375.16;4970714;28;20204;-33
2021/07/27 11:14:29;;;;;;;9.23;3.70;;;;;;;-148.56;100.00;61375.16;4988731;28;20069;-32
2021/07/27 11:17:56;;;;;;;11.40;3.78;;;;;;;-148.56;100.00;61375.16;4987783;28;20403;-32
2021/07/27 11:21:24;;;;;;;7.95;3.75;;;;;;;-148.56;100.00;61375.16;4993311;28;20093;-30
2021/07/27 11:24:48;;;;;;;10.15;3.90;;;;;;;-148.56;100.00;61375.16;4987127;28;20125;-32
2021/07/27 11:28:13;;;;;;;7.72;3.95;;;;;;;-148.56;100.00;61375.16;5003523;28;20507;-34
2021/07/27 11:31:46;;;;;;;7.13;3.83;;;;;;;-148.56;100.00;61375.16;4986900;28;20062;-32
2021/07/27 11:35:14;;;;;;;9.68;4.00;;;;;;;-148.56;100.00;61375.16;4987011;28;20664;-30
2021/07/27 11:38:38;;;;;;;11.93;3.92;;;;;;;-148.56;100.00;61375.16;5002101;28;20040;-31
2021/07/27 11:42:06;;;;;;;6.63;3.90;;;;;;;-148.56;100.00;61375.16;4998871;28;20042;-32
2021/07/27 11:45:30;;;;;;;8.20;3.97;;;;;;;-148.56;100.00;61375.16;5004614;28;20049;-31
2021/07/27 11:48:54;;;;;;;6.88;3.63;;;;;;;-148.56;100.00;61375.16;4991648;28;20126;-31
2021/07/27 11:52:27;;;;;;;7.72;3.90;;;;;;;-148.56;100.00;61375.16;4994313;28;20083;-30
2021/07/27 11:56:09;;;;;;;8.50;3.92;;;;;;;-148.56;100.00;61375.16;4988342;28;20524;-32
2021/07/27 11:59:33;;;;;;;7.93;3.83;;;;;;;-148.56;100.00;61375.16;4987222;28;20468;-33
2021/07/27 12:02:56;;;;;;;6.13;3.72;;;;;;;-148.56;100.00;61375.16;4989221;28;20482;-31
2021/07/27 12:06:20;;;;;;;7.38;3.53;;;;;;;-148.56;100.00;61375.16;4992584;28;20022;-30
2021/07/27 12:09:44;;;;;;;5.38;3.67;;;;;;;-148.56;100.00;61375.16;4992779;28;20033;-33
2021/07/27 12:13:08;;;;;;;5.80;3.70;;;;;;;-148.56;100.00;61375.16;4987537;28;20929;-32
2021/07/27 12:16:32;;;;;;;6.50;3.83;;;;;;;-148.56;100.00;61375.16;4989528;28;20451;-35
2021/07/27 12:19:56;;;;;;;6.28;3.45;;;;;;;-148.56;100.00;61375.16;4990512;28;20041;-31
2021/07/27 12:23:20;;;;;;;6.82;3.90;;;;;;;-148.56;100.00;61375.16;4997235;28;20377;-32
2021/07/27 12:26:44;;;;;;;7.05;3.60;;;;;;;-148.56;100.00;61375.16;4990281;28;20047;-33
2021/07/27 12:30:09;;;;;;;8.25;3.80;;;;;;;-148.56;100.00;61375.16;5000545;28;20037;-32
2021/07/27 12:33:32;;;;;;;7.10;3.47;;;;;;;-148.56;100.00;61375.16;4989398;28;20034;-32
2021/07/27 12:37:00;;;;;;;5.35;3.40;;;;;;;-148.56;100.00;61375.16;4990974;28;20026;-32
2021/07/27 12:40:24;;;;;;;5.63;3.50;;;;;;;-148.56;100.00;61375.16;4991218;28;20052;-33
2021/07/27 12:43:48;;;;;;;5.80;3.28;;;;;;;-148.56;100.00;61375.16;4987193;28;20036;-31
2021/07/27 12:47:12;;;;;;;6.07;3.35;;;;;;;-148.56;100.00;61375.16;4991028;28;20034;-32
2021/07/27 12:50:36;;;;;;;5.75;2.97;;;;;;;-148.56;100.00;61375.16;4991373;28;20431;-31
2021/07/27 12:53:59;;;;;;;4.53;3.00;;;;;;;-148.56;100.00;61375.16;4987080;28;20065;-32
2021/07/27 12:57:23;;;;;;;5.50;3.30;;;;;;;-148.56;100.00;61375.16;4988636;28;20668;-31
2021/07/27 13:00:47;;;;;;;5.38;3.25;;;;;;;-148.56;100.00;61375.16;4997058;28;20781;-30
2021/07/27 13:04:11;;;;;;;7.32;3.10;;;;;;;-148.56;100.00;61375.16;4985497;28;20451;-32
2021/07/27 13:07:35;;;;;;;4.65;3.25;;;;;;;-148.56;100.00;61375.16;4980112;28;20038;-31
2021/07/27 13:10:59;;;;;;;4.95;2.83;;;;;;;-148.56;100.00;61375.16;4985757;28;20913;-32
2021/07/27 13:14:23;;;;;;;6.95;3.10;;;;;;;-148.56;100.00;61375.16;4993382;28;20030;-31
2021/07/27 13:17:47;;;;;;;5.50;2.90;;;;;;;-148.56;100.00;61375.16;4989952;28;20030;-31
2021/07/27 13:21:11;;;;;;;5.63;3.25;;;;;;;-148.56;100.00;61375.16;4986594;28;20406;-31
2021/07/27 13:24:35;;;;;;;4.35;2.80;;;;;;;-148.56;100.00;61375.16;4991189;28;20026;-32
2021/07/27 13:27:59;;;;;;;4.95;2.83;;;;;;;-148.56;100.00;61375.16;4989058;28;20037;-32
2021/07/27 13:31:23;;;;;;;3.97;3.15;;;;;;;-148.56;100.00;61375.16;4994111;28;20030;-32
2021/07/27 13:34:47;;;;;;;4.63;3.10;;;;;;;-148.56;100.00;61375.16;4987315;28;20030;-31
2021/07/27 13:38:11;;;;;;;4.00;2.85;;;;;;;-148.56;100.00;61375.16;4987987;28;20079;-32
2021/07/27 13:41:34;;;;;;;6.07;2.67;;;;;;;-148.56;100.00;61375.16;5004666;28;20495;-32
2021/07/27 13:44:58;;;;;;;4.35;2.83;;;;;;;-148.56;100.00;61375.16;4996033;28;20042;-32
2021/07/27 13:48:22;;;;;;;5.20;2.80;;;;;;;-148.56;100.00;61375.16;4990104;28;20097;-30
2021/07/27 13:51:46;;;;;;;3.22;2.72;;;;;;;-148.56;100.00;61375.16;4997121;28;20109;-31
2021/07/27 13:55:10;;;;;;;4.70;3.00;;;;;;;-148.56;100.00;61375.16;4990138;28;20022;-31
2021/07/27 13:58:34;;;;;;;4.90;3.00;;;;;;;-148.56;100.00;61375.16;4987952;28;20022;-32
2021/07/27 14:01:58;;;;;;;3.33;2.40;;;;;;;-148.56;100.00;61375.16;4994059;28;20108;-31
2021/07/27 14:05:22;;;;;;;5.50;2.78;;;;;;;-148.56;100.00;61375.16;4987617;28;20030;-32
2021/07/27 14:08:47;;;;;;;3.30;2.60;;;;;;;-148.56;100.00;61375.16;4987952;28;20037;-31
2021/07/27 14:12:11;;;;;;;3.60;2.80;;;;;;;-148.56;100.00;61375.16;4987917;28;20060;-30
2021/07/27 14:15:34;;;;;;;4.63;2.60;;;;;;;-148.56;100.00;61375.16;4986109;28;20166;-32
2021/07/27 14:18:58;;;;;;;3.97;2.50;;;;;;;-148.56;100.00;61375.16;4989825;28;20527;-32
2021/07/27 14:22:22;;;;;;;3.30;2.45;;;;;;;-148.56;100.00;61375.16;4994808;28;20034;-31
2021/07/27 14:25:46;;;;;;;3.13;2.45;;;;;;;-148.56;100.00;61375.16;4987339;28;20104;-31
2021/07/27 14:29:10;;;;;;;4.57;2.60;;;;;;;-148.56;100.00;61375.16;4984241;28;20030;-31
2021/07/27 14:32:34;;;;;;;4.05;2.47;;;;;;;-148.56;100.00;61375.16;4986160;28;20037;-29
2021/07/27 14:35:58;;;;;;;2.63;2.00;;;;;;;-148.56;100.00;61375.16;4988263;28;20087;-30
2021/07/27 14:39:21;;;;;;;3.30;2.35;;;;;;;-148.56;100.00;61375.16;4985454;28;20029;-32
2021/07/27 14:42:45;;;;;;;3.50;2.50;;;;;;;-148.56;100.00;61375.16;4985688;28;20034;-31
2021/07/27 14:46:10;;;;;;;3.10;2.40;;;;;;;-148.56;100.00;61375.16;4988133;28;20555;-32
2021/07/27 14:49:34;;;;;;;2.95;2.22;;;;;;;-148.56;100.00;61375.16;5000361;28;20068;-32
2021/07/27 14:52:58;;;;;;;3.63;2.50;;;;;;;-148.56;100.00;61375.16;4996481;28;20037;-32
2021/07/27 14:56:22;;;;;;;4.03;2.53;;;;;;;-148.56;100.00;61375.16;4989178;28;20034;-32
2021/07/27 14:59:45;;;;;;;2.67;2.20;;;;;;;-148.56;100.00;61375.16;4987878;28;20049;-30
2021/07/27 15:03:09;;;;;;;2.50;2.20;;;;;;;-148.56;100.00;61375.16;4985991;28;20083;-29
2021/07/27 15:06:33;;;;;;;2.78;2.50;;;;;;;-148.56;100.00;61375.16;4987929;28;20480;-32
2021/07/27 15:09:57;;;;;;;3.10;2.25;;;;;;;-148.56;100.00;61375.16;4989434;28;20061;-34
2021/07/27 15:13:21;;;;;;;4.38;2.20;;;;;;;-148.56;100.00;61375.16;4993697;28;20029;-32
2021/07/27 15:16:45;;;;;;;3.00;2.20;;;;;;;-148.56;100.00;61375.16;5004618;28;20018;-32
2021/07/27 15:20:12;;;;;;;2.75;2.25;;;;;;;-148.56;100.00;61375.16;4990401;28;20110;-31
2021/07/27 15:23:36;;;;;;;2.28;2.05;;;;;;;-148.56;100.00;61375.16;4988201;28;20026;-33
2021/07/27 15:27:01;;;;;;;2.50;2.10;;;;;;;-148.56;100.00;61375.16;4994349;28;20150;-31
2021/07/27 15:30:26;;;;;;;2.38;2.10;;;;;;;-148.56;100.00;61375.16;4988085;28;20120;-32
2021/07/27 15:33:49;;;;;;;3.00;1.92;;;;;;;-148.56;100.00;61375.16;4987921;28;20121;-32
2021/07/27 15:37:14;;;;;;;3.47;2.25;;;;;;;-148.56;100.00;61375.16;4989044;28;20370;-30
2021/07/27 15:40:38;;;;;;;3.20;2.33;;;;;;;-148.56;100.00;61375.16;4988088;28;20030;-31
2021/07/27 15:44:02;;;;;;;3.58;1.95;;;;;;;-148.56;100.00;61375.16;4989474;28;20199;-30
2021/07/27 15:47:27;;;;;;;3.33;2.10;;;;;;;-148.56;100.00;61375.16;4989439;28;20215;-32